sensor_id;sensor_type;location;lat;lon;timestamp;temperature;humidity
21019;DHT22;10667;51.056;3.732;2024-03-07T00:00:34;8.60;99.90
21019;DHT22;10667;51.056;3.732;2024-03-07T00:03:00;8.70;99.90
21019;DHT22;10667;51.056;3.732;2024-03-07T00:05:26;8.60;99.90
21019;DHT22;10667;51.056;3.732;2024-03-07T00:07:53;8.60;99.90
21019;DHT22;10667;51.056;3.732;2024-03-07T00:10:19;8.60;99.90
21019;DHT22;10667;51.056;3.732;2024-03-07T00:12:47;8.60;99.90
21019;DHT22;10667;51.056;3.732;2024-03-07T00:15:14;8.60;99.90
21019;DHT22;10667;51.056;3.732;2024-03-07T00:17:40;8.60;99.90
21019;DHT22;10667;51.056;3.732;2024-03-07T00:20:07;8.60;99.90
21019;DHT22;10667;51.056;3.732;2024-03-07T00:22:40;8.70;99.90
21019;DHT22;10667;51.056;3.732;2024-03-07T00:25:07;8.70;99.90
21019;DHT22;10667;51.056;3.732;2024-03-07T00:27:34;8.70;99.90
21019;DHT22;10667;51.056;3.732;2024-03-07T00:30:01;8.50;99.90
21019;DHT22;10667;51.056;3.732;2024-03-07T00:32:27;8.40;99.90
21019;DHT22;10667;51.056;3.732;2024-03-07T00:35:01;8.30;99.90
21019;DHT22;10667;51.056;3.732;2024-03-07T00:37:29;8.20;99.90
21019;DHT22;10667;51.056;3.732;2024-03-07T00:39:54;8.10;99.90
21019;DHT22;10667;51.056;3.732;2024-03-07T00:42:20;8.20;99.90
21019;DHT22;10667;51.056;3.732;2024-03-07T00:44:47;8.20;99.90
21019;DHT22;10667;51.056;3.732;2024-03-07T00:47:15;8.20;99.90
21019;DHT22;10667;51.056;3.732;2024-03-07T00:49:43;8.20;99.90
21019;DHT22;10667;51.056;3.732;2024-03-07T00:52:09;8.10;99.90
21019;DHT22;10667;51.056;3.732;2024-03-07T00:54:35;8.10;99.90
21019;DHT22;10667;51.056;3.732;2024-03-07T00:57:01;8.00;99.90
21019;DHT22;10667;51.056;3.732;2024-03-07T00:59:27;8.00;99.90
21019;DHT22;10667;51.056;3.732;2024-03-07T01:01:53;8.00;99.90
21019;DHT22;10667;51.056;3.732;2024-03-07T01:04:19;8.00;99.90
21019;DHT22;10667;51.056;3.732;2024-03-07T01:06:45;7.90;99.90
21019;DHT22;10667;51.056;3.732;2024-03-07T01:09:10;7.80;99.90
21019;DHT22;10667;51.056;3.732;2024-03-07T01:11:43;7.70;99.90
21019;DHT22;10667;51.056;3.732;2024-03-07T01:14:10;7.70;99.90
21019;DHT22;10667;51.056;3.732;2024-03-07T01:16:36;7.80;99.90
21019;DHT22;10667;51.056;3.732;2024-03-07T01:19:02;7.80;99.90
21019;DHT22;10667;51.056;3.732;2024-03-07T01:21:33;7.70;99.90
21019;DHT22;10667;51.056;3.732;2024-03-07T01:23:59;7.70;99.90
21019;DHT22;10667;51.056;3.732;2024-03-07T01:26:29;7.70;99.90
21019;DHT22;10667;51.056;3.732;2024-03-07T01:28:56;7.70;99.90
21019;DHT22;10667;51.056;3.732;2024-03-07T01:31:22;7.70;99.90
21019;DHT22;10667;51.056;3.732;2024-03-07T01:33:48;7.70;99.90
21019;DHT22;10667;51.056;3.732;2024-03-07T01:36:14;7.60;99.90
21019;DHT22;10667;51.056;3.732;2024-03-07T01:38:39;7.60;99.90
21019;DHT22;10667;51.056;3.732;2024-03-07T01:41:05;7.60;99.90
21019;DHT22;10667;51.056;3.732;2024-03-07T01:43:31;7.60;99.90
21019;DHT22;10667;51.056;3.732;2024-03-07T01:45:57;7.50;99.90
21019;DHT22;10667;51.056;3.732;2024-03-07T01:48:29;7.50;99.90
21019;DHT22;10667;51.056;3.732;2024-03-07T01:50:59;7.50;99.90
21019;DHT22;10667;51.056;3.732;2024-03-07T01:53:27;7.40;99.90
21019;DHT22;10667;51.056;3.732;2024-03-07T01:55:53;7.40;99.90
21019;DHT22;10667;51.056;3.732;2024-03-07T01:58:22;7.40;99.90
21019;DHT22;10667;51.056;3.732;2024-03-07T02:00:49;7.50;99.90
21019;DHT22;10667;51.056;3.732;2024-03-07T02:03:15;7.50;99.90
21019;DHT22;10667;51.056;3.732;2024-03-07T02:05:41;7.40;99.90
21019;DHT22;10667;51.056;3.732;2024-03-07T02:08:07;7.40;99.90
21019;DHT22;10667;51.056;3.732;2024-03-07T02:10:33;7.40;99.90
21019;DHT22;10667;51.056;3.732;2024-03-07T02:12:59;7.40;99.90
21019;DHT22;10667;51.056;3.732;2024-03-07T02:15:26;7.30;99.90
21019;DHT22;10667;51.056;3.732;2024-03-07T02:17:52;7.30;99.90
21019;DHT22;10667;51.056;3.732;2024-03-07T02:20:18;7.30;99.90
21019;DHT22;10667;51.056;3.732;2024-03-07T02:22:44;7.30;99.90
21019;DHT22;10667;51.056;3.732;2024-03-07T02:25:09;7.30;99.90
21019;DHT22;10667;51.056;3.732;2024-03-07T02:27:36;7.30;99.90
21019;DHT22;10667;51.056;3.732;2024-03-07T02:30:02;7.30;99.90
21019;DHT22;10667;51.056;3.732;2024-03-07T02:32:31;7.20;99.90
21019;DHT22;10667;51.056;3.732;2024-03-07T02:34:57;7.20;99.90
21019;DHT22;10667;51.056;3.732;2024-03-07T02:37:22;7.10;99.90
21019;DHT22;10667;51.056;3.732;2024-03-07T02:39:48;7.10;99.90
21019;DHT22;10667;51.056;3.732;2024-03-07T02:42:14;7.10;99.90
21019;DHT22;10667;51.056;3.732;2024-03-07T02:44:39;7.10;99.90
21019;DHT22;10667;51.056;3.732;2024-03-07T02:47:06;7.00;99.90
21019;DHT22;10667;51.056;3.732;2024-03-07T02:49:32;7.00;99.90
21019;DHT22;10667;51.056;3.732;2024-03-07T02:51:58;7.00;99.90
21019;DHT22;10667;51.056;3.732;2024-03-07T02:54:24;6.90;99.90
21019;DHT22;10667;51.056;3.732;2024-03-07T02:56:49;6.90;99.90
21019;DHT22;10667;51.056;3.732;2024-03-07T02:59:15;6.90;99.90
21019;DHT22;10667;51.056;3.732;2024-03-07T03:01:42;6.90;99.90
21019;DHT22;10667;51.056;3.732;2024-03-07T03:04:07;6.90;99.90
21019;DHT22;10667;51.056;3.732;2024-03-07T03:06:33;6.90;99.90
21019;DHT22;10667;51.056;3.732;2024-03-07T03:08:59;6.90;99.90
21019;DHT22;10667;51.056;3.732;2024-03-07T03:11:25;6.90;99.90
21019;DHT22;10667;51.056;3.732;2024-03-07T03:13:53;6.90;99.90
21019;DHT22;10667;51.056;3.732;2024-03-07T03:16:19;6.80;99.90
21019;DHT22;10667;51.056;3.732;2024-03-07T03:18:45;6.80;99.90
21019;DHT22;10667;51.056;3.732;2024-03-07T03:21:10;6.80;99.90
21019;DHT22;10667;51.056;3.732;2024-03-07T03:23:36;6.70;99.90
21019;DHT22;10667;51.056;3.732;2024-03-07T03:26:02;6.70;99.90
21019;DHT22;10667;51.056;3.732;2024-03-07T03:28:29;6.60;99.90
21019;DHT22;10667;51.056;3.732;2024-03-07T03:30:54;6.60;99.90
21019;DHT22;10667;51.056;3.732;2024-03-07T03:33:20;6.60;99.90
21019;DHT22;10667;51.056;3.732;2024-03-07T03:35:48;6.60;99.90
21019;DHT22;10667;51.056;3.732;2024-03-07T03:38:14;6.50;99.90
21019;DHT22;10667;51.056;3.732;2024-03-07T03:40:40;6.50;99.90
21019;DHT22;10667;51.056;3.732;2024-03-07T03:43:06;6.50;99.90
21019;DHT22;10667;51.056;3.732;2024-03-07T03:45:32;6.50;99.90
21019;DHT22;10667;51.056;3.732;2024-03-07T03:47:59;6.40;99.90
21019;DHT22;10667;51.056;3.732;2024-03-07T03:50:25;6.40;99.90
21019;DHT22;10667;51.056;3.732;2024-03-07T03:52:51;6.30;99.90
21019;DHT22;10667;51.056;3.732;2024-03-07T03:55:17;6.30;99.90
21019;DHT22;10667;51.056;3.732;2024-03-07T03:57:44;6.30;99.90
21019;DHT22;10667;51.056;3.732;2024-03-07T04:00:12;6.30;99.90
21019;DHT22;10667;51.056;3.732;2024-03-07T04:02:39;6.30;99.90
21019;DHT22;10667;51.056;3.732;2024-03-07T04:05:05;6.40;99.90
21019;DHT22;10667;51.056;3.732;2024-03-07T04:07:31;6.40;99.90
21019;DHT22;10667;51.056;3.732;2024-03-07T04:09:57;6.40;99.90
21019;DHT22;10667;51.056;3.732;2024-03-07T04:12:26;6.30;99.90
21019;DHT22;10667;51.056;3.732;2024-03-07T04:14:53;6.20;99.90
21019;DHT22;10667;51.056;3.732;2024-03-07T04:17:22;6.20;99.90
21019;DHT22;10667;51.056;3.732;2024-03-07T04:19:47;6.20;99.90
21019;DHT22;10667;51.056;3.732;2024-03-07T04:22:13;6.20;99.90
21019;DHT22;10667;51.056;3.732;2024-03-07T04:24:39;6.10;99.90
21019;DHT22;10667;51.056;3.732;2024-03-07T04:27:06;6.10;99.90
21019;DHT22;10667;51.056;3.732;2024-03-07T04:29:34;6.10;99.90
21019;DHT22;10667;51.056;3.732;2024-03-07T04:32:01;6.10;99.90
21019;DHT22;10667;51.056;3.732;2024-03-07T04:34:30;6.10;99.90
21019;DHT22;10667;51.056;3.732;2024-03-07T04:36:59;6.00;99.90
21019;DHT22;10667;51.056;3.732;2024-03-07T04:39:28;6.10;99.90
21019;DHT22;10667;51.056;3.732;2024-03-07T04:41:58;6.00;99.90
21019;DHT22;10667;51.056;3.732;2024-03-07T04:44:26;6.00;99.90
21019;DHT22;10667;51.056;3.732;2024-03-07T04:46:51;6.10;99.90
21019;DHT22;10667;51.056;3.732;2024-03-07T04:49:24;6.10;99.90
21019;DHT22;10667;51.056;3.732;2024-03-07T04:51:51;6.00;99.90
21019;DHT22;10667;51.056;3.732;2024-03-07T04:54:21;6.10;99.90
21019;DHT22;10667;51.056;3.732;2024-03-07T04:56:48;6.10;99.90
21019;DHT22;10667;51.056;3.732;2024-03-07T04:59:14;6.10;99.90
21019;DHT22;10667;51.056;3.732;2024-03-07T05:01:40;6.10;99.90
21019;DHT22;10667;51.056;3.732;2024-03-07T05:04:07;6.10;99.90
21019;DHT22;10667;51.056;3.732;2024-03-07T05:06:33;6.10;99.90
21019;DHT22;10667;51.056;3.732;2024-03-07T05:09:02;6.10;99.90
21019;DHT22;10667;51.056;3.732;2024-03-07T05:11:31;6.10;99.90
21019;DHT22;10667;51.056;3.732;2024-03-07T05:13:57;6.10;99.90
21019;DHT22;10667;51.056;3.732;2024-03-07T05:16:24;6.10;99.90
21019;DHT22;10667;51.056;3.732;2024-03-07T05:18:50;6.00;99.90
21019;DHT22;10667;51.056;3.732;2024-03-07T05:21:17;6.00;99.90
21019;DHT22;10667;51.056;3.732;2024-03-07T05:23:58;6.00;99.90
21019;DHT22;10667;51.056;3.732;2024-03-07T05:26:24;5.90;99.90
21019;DHT22;10667;51.056;3.732;2024-03-07T05:28:50;5.90;99.90
21019;DHT22;10667;51.056;3.732;2024-03-07T05:31:17;5.90;99.90
21019;DHT22;10667;51.056;3.732;2024-03-07T05:33:44;5.80;99.90
21019;DHT22;10667;51.056;3.732;2024-03-07T05:36:09;5.90;99.90
21019;DHT22;10667;51.056;3.732;2024-03-07T05:38:41;5.80;99.90
21019;DHT22;10667;51.056;3.732;2024-03-07T05:41:13;5.80;99.90
21019;DHT22;10667;51.056;3.732;2024-03-07T05:43:39;5.80;99.90
21019;DHT22;10667;51.056;3.732;2024-03-07T05:46:05;5.80;99.90
21019;DHT22;10667;51.056;3.732;2024-03-07T05:48:33;5.80;99.90
21019;DHT22;10667;51.056;3.732;2024-03-07T05:50:59;5.80;99.90
21019;DHT22;10667;51.056;3.732;2024-03-07T05:53:26;5.70;99.90
21019;DHT22;10667;51.056;3.732;2024-03-07T05:55:51;5.70;99.90
21019;DHT22;10667;51.056;3.732;2024-03-07T05:58:17;5.70;99.90
21019;DHT22;10667;51.056;3.732;2024-03-07T06:00:45;5.70;99.90
21019;DHT22;10667;51.056;3.732;2024-03-07T06:03:20;5.60;99.90
21019;DHT22;10667;51.056;3.732;2024-03-07T06:05:46;5.60;99.90
21019;DHT22;10667;51.056;3.732;2024-03-07T06:08:16;5.60;99.90
21019;DHT22;10667;51.056;3.732;2024-03-07T06:10:44;5.50;99.90
21019;DHT22;10667;51.056;3.732;2024-03-07T06:13:11;5.50;99.90
21019;DHT22;10667;51.056;3.732;2024-03-07T06:15:38;5.50;99.90
21019;DHT22;10667;51.056;3.732;2024-03-07T06:18:04;5.40;99.90
21019;DHT22;10667;51.056;3.732;2024-03-07T06:20:30;5.40;99.90
21019;DHT22;10667;51.056;3.732;2024-03-07T06:22:56;5.40;99.90
21019;DHT22;10667;51.056;3.732;2024-03-07T06:25:23;5.40;99.90
21019;DHT22;10667;51.056;3.732;2024-03-07T06:28:01;5.40;99.90
21019;DHT22;10667;51.056;3.732;2024-03-07T06:30:41;5.40;99.90
21019;DHT22;10667;51.056;3.732;2024-03-07T06:33:08;5.40;99.90
21019;DHT22;10667;51.056;3.732;2024-03-07T06:35:34;5.40;99.90
21019;DHT22;10667;51.056;3.732;2024-03-07T06:38:04;5.40;99.90
21019;DHT22;10667;51.056;3.732;2024-03-07T06:40:31;5.40;99.90
21019;DHT22;10667;51.056;3.732;2024-03-07T06:42:58;5.50;99.90
21019;DHT22;10667;51.056;3.732;2024-03-07T06:45:24;5.50;99.90
21019;DHT22;10667;51.056;3.732;2024-03-07T06:47:50;5.60;99.90
21019;DHT22;10667;51.056;3.732;2024-03-07T06:50:18;5.70;99.90
21019;DHT22;10667;51.056;3.732;2024-03-07T06:52:48;5.70;99.90
21019;DHT22;10667;51.056;3.732;2024-03-07T06:55:17;5.60;99.90
21019;DHT22;10667;51.056;3.732;2024-03-07T06:57:44;5.60;99.90
21019;DHT22;10667;51.056;3.732;2024-03-07T07:00:11;5.60;99.90
21019;DHT22;10667;51.056;3.732;2024-03-07T07:02:38;5.50;99.90
21019;DHT22;10667;51.056;3.732;2024-03-07T07:05:06;5.60;99.90
21019;DHT22;10667;51.056;3.732;2024-03-07T07:07:37;5.50;99.90
21019;DHT22;10667;51.056;3.732;2024-03-07T07:10:05;5.70;99.90
21019;DHT22;10667;51.056;3.732;2024-03-07T07:12:42;5.80;99.90
21019;DHT22;10667;51.056;3.732;2024-03-07T07:15:08;5.90;99.90
21019;DHT22;10667;51.056;3.732;2024-03-07T07:17:33;6.00;99.90
21019;DHT22;10667;51.056;3.732;2024-03-07T07:19:59;5.90;99.90
21019;DHT22;10667;51.056;3.732;2024-03-07T07:22:25;6.00;99.90
21019;DHT22;10667;51.056;3.732;2024-03-07T07:24:51;6.10;99.90
21019;DHT22;10667;51.056;3.732;2024-03-07T07:27:17;6.10;99.90
21019;DHT22;10667;51.056;3.732;2024-03-07T07:29:44;6.30;99.90
21019;DHT22;10667;51.056;3.732;2024-03-07T07:32:11;6.30;99.90
21019;DHT22;10667;51.056;3.732;2024-03-07T07:34:39;6.30;99.90
21019;DHT22;10667;51.056;3.732;2024-03-07T07:37:05;6.20;99.90
21019;DHT22;10667;51.056;3.732;2024-03-07T07:39:31;6.30;99.90
21019;DHT22;10667;51.056;3.732;2024-03-07T07:41:57;6.50;99.90
21019;DHT22;10667;51.056;3.732;2024-03-07T07:44:23;6.60;99.90
21019;DHT22;10667;51.056;3.732;2024-03-07T07:46:48;6.70;99.90
21019;DHT22;10667;51.056;3.732;2024-03-07T07:49:15;6.70;99.90
21019;DHT22;10667;51.056;3.732;2024-03-07T07:51:41;6.70;99.90
21019;DHT22;10667;51.056;3.732;2024-03-07T07:54:07;6.80;99.90
21019;DHT22;10667;51.056;3.732;2024-03-07T07:56:35;6.70;99.90
21019;DHT22;10667;51.056;3.732;2024-03-07T07:59:01;6.50;99.90
21019;DHT22;10667;51.056;3.732;2024-03-07T08:01:27;6.60;99.90
21019;DHT22;10667;51.056;3.732;2024-03-07T08:03:53;6.60;99.90
21019;DHT22;10667;51.056;3.732;2024-03-07T08:06:19;6.80;99.90
21019;DHT22;10667;51.056;3.732;2024-03-07T08:08:46;6.90;99.90
21019;DHT22;10667;51.056;3.732;2024-03-07T08:11:11;6.70;99.90
21019;DHT22;10667;51.056;3.732;2024-03-07T08:13:40;6.40;99.90
21019;DHT22;10667;51.056;3.732;2024-03-07T08:16:06;6.40;99.90
21019;DHT22;10667;51.056;3.732;2024-03-07T08:18:32;6.40;99.90
21019;DHT22;10667;51.056;3.732;2024-03-07T08:20:58;6.60;99.90
21019;DHT22;10667;51.056;3.732;2024-03-07T08:23:23;6.50;99.90
21019;DHT22;10667;51.056;3.732;2024-03-07T08:25:52;6.60;99.90
21019;DHT22;10667;51.056;3.732;2024-03-07T08:28:17;6.70;99.90
21019;DHT22;10667;51.056;3.732;2024-03-07T08:30:44;6.80;99.90
21019;DHT22;10667;51.056;3.732;2024-03-07T08:33:10;6.80;99.90
21019;DHT22;10667;51.056;3.732;2024-03-07T08:35:36;6.90;99.90
21019;DHT22;10667;51.056;3.732;2024-03-07T08:38:02;7.10;99.90
21019;DHT22;10667;51.056;3.732;2024-03-07T08:40:30;7.30;99.90
21019;DHT22;10667;51.056;3.732;2024-03-07T08:43:00;7.40;99.90
21019;DHT22;10667;51.056;3.732;2024-03-07T08:45:27;7.30;99.90
21019;DHT22;10667;51.056;3.732;2024-03-07T08:47:54;7.10;99.90
21019;DHT22;10667;51.056;3.732;2024-03-07T08:50:21;7.10;99.90
21019;DHT22;10667;51.056;3.732;2024-03-07T08:52:48;7.20;99.90
21019;DHT22;10667;51.056;3.732;2024-03-07T08:55:15;7.30;99.90
21019;DHT22;10667;51.056;3.732;2024-03-07T08:57:42;7.30;99.90
21019;DHT22;10667;51.056;3.732;2024-03-07T09:00:14;7.50;99.90
21019;DHT22;10667;51.056;3.732;2024-03-07T09:02:53;7.60;99.90
21019;DHT22;10667;51.056;3.732;2024-03-07T09:05:21;7.80;99.90
21019;DHT22;10667;51.056;3.732;2024-03-07T09:07:48;7.90;99.90
21019;DHT22;10667;51.056;3.732;2024-03-07T09:10:14;7.90;99.90
21019;DHT22;10667;51.056;3.732;2024-03-07T09:12:43;7.60;99.90
21019;DHT22;10667;51.056;3.732;2024-03-07T09:15:09;7.20;99.90
21019;DHT22;10667;51.056;3.732;2024-03-07T09:17:38;6.90;99.90
21019;DHT22;10667;51.056;3.732;2024-03-07T09:20:07;6.70;99.90
21019;DHT22;10667;51.056;3.732;2024-03-07T09:22:48;6.60;99.90
21019;DHT22;10667;51.056;3.732;2024-03-07T09:25:15;6.60;99.90
21019;DHT22;10667;51.056;3.732;2024-03-07T09:27:42;6.80;99.90
21019;DHT22;10667;51.056;3.732;2024-03-07T09:30:08;7.00;99.90
21019;DHT22;10667;51.056;3.732;2024-03-07T09:32:40;6.90;99.90
21019;DHT22;10667;51.056;3.732;2024-03-07T09:35:08;6.90;99.90
21019;DHT22;10667;51.056;3.732;2024-03-07T09:37:38;6.80;99.90
21019;DHT22;10667;51.056;3.732;2024-03-07T09:40:05;7.00;99.90
21019;DHT22;10667;51.056;3.732;2024-03-07T09:42:33;7.00;99.90
21019;DHT22;10667;51.056;3.732;2024-03-07T09:45:02;7.10;99.90
21019;DHT22;10667;51.056;3.732;2024-03-07T09:47:29;7.30;99.90
21019;DHT22;10667;51.056;3.732;2024-03-07T09:49:56;7.50;99.90
21019;DHT22;10667;51.056;3.732;2024-03-07T09:52:22;7.70;99.90
21019;DHT22;10667;51.056;3.732;2024-03-07T09:54:49;7.80;99.90
21019;DHT22;10667;51.056;3.732;2024-03-07T09:57:15;8.00;99.90
21019;DHT22;10667;51.056;3.732;2024-03-07T09:59:42;8.10;99.90
21019;DHT22;10667;51.056;3.732;2024-03-07T10:02:13;8.10;99.90
21019;DHT22;10667;51.056;3.732;2024-03-07T10:04:48;8.30;99.90
21019;DHT22;10667;51.056;3.732;2024-03-07T10:07:16;8.40;99.90
21019;DHT22;10667;51.056;3.732;2024-03-07T10:09:42;8.40;99.90
21019;DHT22;10667;51.056;3.732;2024-03-07T10:12:09;8.30;99.90
21019;DHT22;10667;51.056;3.732;2024-03-07T10:14:51;8.30;99.90
21019;DHT22;10667;51.056;3.732;2024-03-07T10:17:17;8.10;99.90
21019;DHT22;10667;51.056;3.732;2024-03-07T10:19:49;8.20;99.90
21019;DHT22;10667;51.056;3.732;2024-03-07T10:22:16;8.40;99.90
21019;DHT22;10667;51.056;3.732;2024-03-07T10:24:53;8.60;99.90
21019;DHT22;10667;51.056;3.732;2024-03-07T10:27:23;8.80;99.90
21019;DHT22;10667;51.056;3.732;2024-03-07T10:29:51;9.00;99.90
21019;DHT22;10667;51.056;3.732;2024-03-07T10:32:21;9.10;99.90
21019;DHT22;10667;51.056;3.732;2024-03-07T10:34:51;9.10;99.90
21019;DHT22;10667;51.056;3.732;2024-03-07T10:37:17;9.10;99.90
21019;DHT22;10667;51.056;3.732;2024-03-07T10:39:49;9.10;99.90
21019;DHT22;10667;51.056;3.732;2024-03-07T10:42:19;9.30;99.90
21019;DHT22;10667;51.056;3.732;2024-03-07T10:44:48;9.50;99.90
21019;DHT22;10667;51.056;3.732;2024-03-07T10:47:17;9.70;99.90
21019;DHT22;10667;51.056;3.732;2024-03-07T10:56:22;9.30;99.90
21019;DHT22;10667;51.056;3.732;2024-03-07T10:58:58;9.50;99.90
21019;DHT22;10667;51.056;3.732;2024-03-07T11:01:31;9.60;99.90
21019;DHT22;10667;51.056;3.732;2024-03-07T11:04:00;9.80;99.90
21019;DHT22;10667;51.056;3.732;2024-03-07T11:06:30;9.70;99.90
21019;DHT22;10667;51.056;3.732;2024-03-07T11:08:56;9.40;99.90
21019;DHT22;10667;51.056;3.732;2024-03-07T11:11:23;9.30;99.90
21019;DHT22;10667;51.056;3.732;2024-03-07T11:13:50;9.30;99.90
21019;DHT22;10667;51.056;3.732;2024-03-07T11:16:19;9.30;99.90
21019;DHT22;10667;51.056;3.732;2024-03-07T11:19:18;9.40;99.90
21019;DHT22;10667;51.056;3.732;2024-03-07T11:21:45;9.50;99.90
21019;DHT22;10667;51.056;3.732;2024-03-07T11:24:28;9.70;99.90
21019;DHT22;10667;51.056;3.732;2024-03-07T11:26:57;9.80;99.90
21019;DHT22;10667;51.056;3.732;2024-03-07T11:29:50;10.00;99.90
21019;DHT22;10667;51.056;3.732;2024-03-07T11:32:18;9.90;99.90
21019;DHT22;10667;51.056;3.732;2024-03-07T11:34:47;10.10;99.90
21019;DHT22;10667;51.056;3.732;2024-03-07T11:37:44;10.00;99.90
21019;DHT22;10667;51.056;3.732;2024-03-07T11:40:12;10.20;99.90
21019;DHT22;10667;51.056;3.732;2024-03-07T11:42:46;10.30;99.90
21019;DHT22;10667;51.056;3.732;2024-03-07T11:45:13;10.40;99.90
21019;DHT22;10667;51.056;3.732;2024-03-07T11:47:57;10.40;99.90
21019;DHT22;10667;51.056;3.732;2024-03-07T11:50:41;10.40;99.90
21019;DHT22;10667;51.056;3.732;2024-03-07T11:53:09;10.30;99.90
21019;DHT22;10667;51.056;3.732;2024-03-07T11:55:36;10.40;99.90
21019;DHT22;10667;51.056;3.732;2024-03-07T11:58:17;10.50;99.90
21019;DHT22;10667;51.056;3.732;2024-03-07T12:00:44;10.50;99.90
21019;DHT22;10667;51.056;3.732;2024-03-07T12:03:17;10.50;99.90
21019;DHT22;10667;51.056;3.732;2024-03-07T12:05:45;10.30;99.90
21019;DHT22;10667;51.056;3.732;2024-03-07T12:08:11;10.20;99.90
21019;DHT22;10667;51.056;3.732;2024-03-07T12:10:42;10.10;99.90
21019;DHT22;10667;51.056;3.732;2024-03-07T12:13:14;10.10;99.90
21019;DHT22;10667;51.056;3.732;2024-03-07T12:15:45;10.20;99.90
21019;DHT22;10667;51.056;3.732;2024-03-07T12:18:12;10.30;99.90
21019;DHT22;10667;51.056;3.732;2024-03-07T12:20:43;10.30;99.90
21019;DHT22;10667;51.056;3.732;2024-03-07T12:23:15;10.40;99.90
21019;DHT22;10667;51.056;3.732;2024-03-07T12:25:44;10.50;99.90
21019;DHT22;10667;51.056;3.732;2024-03-07T12:28:14;10.40;99.90
21019;DHT22;10667;51.056;3.732;2024-03-07T12:33:12;10.40;99.90
21019;DHT22;10667;51.056;3.732;2024-03-07T12:35:40;10.60;99.90
21019;DHT22;10667;51.056;3.732;2024-03-07T12:38:09;10.70;99.90
21019;DHT22;10667;51.056;3.732;2024-03-07T12:40:41;10.80;99.90
21019;DHT22;10667;51.056;3.732;2024-03-07T12:43:17;10.60;99.90
21019;DHT22;10667;51.056;3.732;2024-03-07T12:45:45;10.60;99.90
21019;DHT22;10667;51.056;3.732;2024-03-07T12:48:11;10.70;99.90
21019;DHT22;10667;51.056;3.732;2024-03-07T12:50:40;10.70;99.90
21019;DHT22;10667;51.056;3.732;2024-03-07T12:53:06;10.90;99.90
21019;DHT22;10667;51.056;3.732;2024-03-07T12:55:40;11.00;99.90
21019;DHT22;10667;51.056;3.732;2024-03-07T12:58:10;11.00;99.90
21019;DHT22;10667;51.056;3.732;2024-03-07T13:00:39;11.00;99.90
21019;DHT22;10667;51.056;3.732;2024-03-07T13:03:07;10.90;99.90
21019;DHT22;10667;51.056;3.732;2024-03-07T13:05:35;10.80;99.90
21019;DHT22;10667;51.056;3.732;2024-03-07T13:08:00;10.80;99.90
21019;DHT22;10667;51.056;3.732;2024-03-07T13:10:26;10.70;99.90
21019;DHT22;10667;51.056;3.732;2024-03-07T13:12:52;10.60;99.90
21019;DHT22;10667;51.056;3.732;2024-03-07T13:15:18;10.80;99.90
21019;DHT22;10667;51.056;3.732;2024-03-07T13:17:47;10.80;99.90
21019;DHT22;10667;51.056;3.732;2024-03-07T13:20:14;10.70;99.90
21019;DHT22;10667;51.056;3.732;2024-03-07T13:22:41;10.80;99.90
21019;DHT22;10667;51.056;3.732;2024-03-07T13:25:17;10.80;99.90
21019;DHT22;10667;51.056;3.732;2024-03-07T13:30:27;10.70;99.90
21019;DHT22;10667;51.056;3.732;2024-03-07T13:32:57;10.70;99.90
21019;DHT22;10667;51.056;3.732;2024-03-07T13:35:24;10.60;99.90
21019;DHT22;10667;51.056;3.732;2024-03-07T13:37:54;10.70;99.90
21019;DHT22;10667;51.056;3.732;2024-03-07T13:40:22;10.70;99.90
21019;DHT22;10667;51.056;3.732;2024-03-07T13:42:57;10.70;99.90
21019;DHT22;10667;51.056;3.732;2024-03-07T13:45:27;10.80;99.90
21019;DHT22;10667;51.056;3.732;2024-03-07T13:47:54;11.10;99.90
21019;DHT22;10667;51.056;3.732;2024-03-07T13:50:22;11.30;99.90
21019;DHT22;10667;51.056;3.732;2024-03-07T13:52:50;11.60;99.90
21019;DHT22;10667;51.056;3.732;2024-03-07T13:56:02;11.80;99.90
21019;DHT22;10667;51.056;3.732;2024-03-07T14:12:17;12.20;99.90
21019;DHT22;10667;51.056;3.732;2024-03-07T14:29:22;12.10;99.90
21019;DHT22;10667;51.056;3.732;2024-03-07T14:31:52;12.30;99.90
21019;DHT22;10667;51.056;3.732;2024-03-07T14:35:03;11.90;99.90
21019;DHT22;10667;51.056;3.732;2024-03-07T14:37:25;11.50;99.90
21019;DHT22;10667;51.056;3.732;2024-03-07T14:39:52;11.20;99.90
21019;DHT22;10667;51.056;3.732;2024-03-07T14:42:20;11.30;99.90
21019;DHT22;10667;51.056;3.732;2024-03-07T14:44:47;11.60;99.90
21019;DHT22;10667;51.056;3.732;2024-03-07T14:47:16;11.80;99.90
21019;DHT22;10667;51.056;3.732;2024-03-07T14:49:44;12.00;99.90
21019;DHT22;10667;51.056;3.732;2024-03-07T14:52:10;12.10;99.90
21019;DHT22;10667;51.056;3.732;2024-03-07T14:54:37;11.70;99.90
21019;DHT22;10667;51.056;3.732;2024-03-07T14:57:04;11.40;99.90
21019;DHT22;10667;51.056;3.732;2024-03-07T14:59:33;11.00;99.90
21019;DHT22;10667;51.056;3.732;2024-03-07T15:01:59;10.70;99.90
21019;DHT22;10667;51.056;3.732;2024-03-07T15:04:29;10.60;99.90
21019;DHT22;10667;51.056;3.732;2024-03-07T15:06:59;10.60;99.90
21019;DHT22;10667;51.056;3.732;2024-03-07T15:09:28;10.50;99.90
21019;DHT22;10667;51.056;3.732;2024-03-07T15:11:55;10.40;99.90
21019;DHT22;10667;51.056;3.732;2024-03-07T15:14:22;10.30;99.90
21019;DHT22;10667;51.056;3.732;2024-03-07T15:16:47;10.40;99.90
21019;DHT22;10667;51.056;3.732;2024-03-07T15:19:15;10.50;99.90
21019;DHT22;10667;51.056;3.732;2024-03-07T15:21:41;10.50;99.90
21019;DHT22;10667;51.056;3.732;2024-03-07T15:24:07;10.60;99.90
21019;DHT22;10667;51.056;3.732;2024-03-07T15:26:32;10.50;99.90
21019;DHT22;10667;51.056;3.732;2024-03-07T15:28:59;10.50;99.90
21019;DHT22;10667;51.056;3.732;2024-03-07T15:31:27;10.40;99.90
21019;DHT22;10667;51.056;3.732;2024-03-07T15:33:53;10.40;99.90
21019;DHT22;10667;51.056;3.732;2024-03-07T15:36:20;10.50;99.90
21019;DHT22;10667;51.056;3.732;2024-03-07T15:38:47;10.50;99.90
21019;DHT22;10667;51.056;3.732;2024-03-07T15:41:13;10.60;99.90
21019;DHT22;10667;51.056;3.732;2024-03-07T15:43:39;10.50;99.90
21019;DHT22;10667;51.056;3.732;2024-03-07T15:46:11;10.50;99.90
21019;DHT22;10667;51.056;3.732;2024-03-07T15:48:38;10.60;99.90
21019;DHT22;10667;51.056;3.732;2024-03-07T15:51:04;10.70;99.90
21019;DHT22;10667;51.056;3.732;2024-03-07T15:53:32;10.70;99.90
21019;DHT22;10667;51.056;3.732;2024-03-07T15:56:00;10.70;99.90
21019;DHT22;10667;51.056;3.732;2024-03-07T15:58:25;10.80;99.90
21019;DHT22;10667;51.056;3.732;2024-03-07T16:00:51;10.90;99.90
21019;DHT22;10667;51.056;3.732;2024-03-07T16:03:18;10.80;99.90
21019;DHT22;10667;51.056;3.732;2024-03-07T16:05:45;10.70;99.90
21019;DHT22;10667;51.056;3.732;2024-03-07T16:08:14;10.80;99.90
21019;DHT22;10667;51.056;3.732;2024-03-07T16:10:41;10.70;99.90
21019;DHT22;10667;51.056;3.732;2024-03-07T16:13:11;10.70;99.90
21019;DHT22;10667;51.056;3.732;2024-03-07T16:15:42;10.70;99.90
21019;DHT22;10667;51.056;3.732;2024-03-07T16:18:09;10.60;99.90
21019;DHT22;10667;51.056;3.732;2024-03-07T16:20:35;10.70;99.90
21019;DHT22;10667;51.056;3.732;2024-03-07T16:23:02;10.80;99.90
21019;DHT22;10667;51.056;3.732;2024-03-07T16:25:32;10.70;99.90
21019;DHT22;10667;51.056;3.732;2024-03-07T16:28:00;10.70;99.90